sensor_id;sensor_type;location;lat;lon;timestamp;P1;durP1;ratioP1;P2;durP2;ratioP2
21297;SDS011;10808;48.010;11.326;2023-12-28T00:01:34;9.82;;;5.07;;
21297;SDS011;10808;48.010;11.326;2023-12-28T00:04:01;14.98;;;6.38;;
21297;SDS011;10808;48.010;11.326;2023-12-28T00:06:27;8.57;;;4.32;;
21297;SDS011;10808;48.010;11.326;2023-12-28T00:08:53;8.27;;;4.38;;
21297;SDS011;10808;48.010;11.326;2023-12-28T00:11:19;9.00;;;4.63;;
21297;SDS011;10808;48.010;11.326;2023-12-28T00:13:46;8.90;;;4.40;;
21297;SDS011;10808;48.010;11.326;2023-12-28T00:16:12;6.65;;;3.80;;
21297;SDS011;10808;48.010;11.326;2023-12-28T00:18:39;6.13;;;3.38;;
21297;SDS011;10808;48.010;11.326;2023-12-28T00:21:05;7.13;;;3.55;;
21297;SDS011;10808;48.010;11.326;2023-12-28T00:23:31;5.47;;;3.42;;
21297;SDS011;10808;48.010;11.326;2023-12-28T00:25:57;7.57;;;4.80;;
21297;SDS011;10808;48.010;11.326;2023-12-28T00:28:23;9.50;;;6.47;;
21297;SDS011;10808;48.010;11.326;2023-12-28T00:30:49;9.75;;;6.47;;
21297;SDS011;10808;48.010;11.326;2023-12-28T00:33:15;9.23;;;6.00;;
21297;SDS011;10808;48.010;11.326;2023-12-28T00:35:41;8.02;;;5.13;;
21297;SDS011;10808;48.010;11.326;2023-12-28T00:38:07;7.38;;;4.20;;
21297;SDS011;10808;48.010;11.326;2023-12-28T00:40:33;5.93;;;4.25;;
21297;SDS011;10808;48.010;11.326;2023-12-28T00:42:59;5.05;;;3.42;;
21297;SDS011;10808;48.010;11.326;2023-12-28T00:45:25;5.88;;;4.00;;
21297;SDS011;10808;48.010;11.326;2023-12-28T00:47:53;5.43;;;3.40;;
21297;SDS011;10808;48.010;11.326;2023-12-28T00:50:22;4.10;;;2.97;;
21297;SDS011;10808;48.010;11.326;2023-12-28T00:52:48;3.92;;;2.72;;
21297;SDS011;10808;48.010;11.326;2023-12-28T00:55:14;4.28;;;2.92;;
21297;SDS011;10808;48.010;11.326;2023-12-28T00:57:40;4.13;;;2.58;;
21297;SDS011;10808;48.010;11.326;2023-12-28T01:00:06;3.45;;;2.47;;
21297;SDS011;10808;48.010;11.326;2023-12-28T01:02:33;3.92;;;2.47;;
21297;SDS011;10808;48.010;11.326;2023-12-28T01:04:59;3.95;;;2.20;;
21297;SDS011;10808;48.010;11.326;2023-12-28T01:07:25;3.92;;;2.42;;
21297;SDS011;10808;48.010;11.326;2023-12-28T01:09:51;3.13;;;2.47;;
21297;SDS011;10808;48.010;11.326;2023-12-28T01:12:17;4.18;;;2.38;;
21297;SDS011;10808;48.010;11.326;2023-12-28T01:14:45;3.63;;;2.20;;
21297;SDS011;10808;48.010;11.326;2023-12-28T01:17:11;2.60;;;1.98;;
21297;SDS011;10808;48.010;11.326;2023-12-28T01:19:37;2.60;;;1.90;;
21297;SDS011;10808;48.010;11.326;2023-12-28T01:22:03;2.17;;;1.70;;
21297;SDS011;10808;48.010;11.326;2023-12-28T01:24:29;3.10;;;2.00;;
21297;SDS011;10808;48.010;11.326;2023-12-28T01:26:55;1.98;;;1.52;;
21297;SDS011;10808;48.010;11.326;2023-12-28T01:29:21;2.47;;;1.60;;
21297;SDS011;10808;48.010;11.326;2023-12-28T01:31:47;1.83;;;1.30;;
21297;SDS011;10808;48.010;11.326;2023-12-28T01:34:13;1.70;;;1.30;;
21297;SDS011;10808;48.010;11.326;2023-12-28T01:36:40;2.75;;;1.40;;
21297;SDS011;10808;48.010;11.326;2023-12-28T01:39:09;2.03;;;1.15;;
21297;SDS011;10808;48.010;11.326;2023-12-28T01:41:38;1.63;;;1.23;;
21297;SDS011;10808;48.010;11.326;2023-12-28T01:44:05;2.00;;;1.30;;
21297;SDS011;10808;48.010;11.326;2023-12-28T01:46:32;1.52;;;1.13;;
21297;SDS011;10808;48.010;11.326;2023-12-28T01:48:59;1.85;;;1.20;;
21297;SDS011;10808;48.010;11.326;2023-12-28T01:51:26;1.23;;;1.13;;
21297;SDS011;10808;48.010;11.326;2023-12-28T01:53:53;1.40;;;1.20;;
21297;SDS011;10808;48.010;11.326;2023-12-28T01:56:20;1.67;;;1.15;;
21297;SDS011;10808;48.010;11.326;2023-12-28T01:58:48;1.98;;;1.20;;
21297;SDS011;10808;48.010;11.326;2023-12-28T02:01:15;1.80;;;1.13;;
21297;SDS011;10808;48.010;11.326;2023-12-28T02:03:42;2.75;;;1.10;;
21297;SDS011;10808;48.010;11.326;2023-12-28T02:06:08;1.70;;;1.00;;
21297;SDS011;10808;48.010;11.326;2023-12-28T02:08:36;1.40;;;1.10;;
21297;SDS011;10808;48.010;11.326;2023-12-28T02:11:02;1.70;;;1.10;;
21297;SDS011;10808;48.010;11.326;2023-12-28T02:13:29;1.20;;;1.10;;
21297;SDS011;10808;48.010;11.326;2023-12-28T02:16:06;1.80;;;1.20;;
21297;SDS011;10808;48.010;11.326;2023-12-28T02:18:38;1.80;;;1.20;;
21297;SDS011;10808;48.010;11.326;2023-12-28T02:21:08;1.33;;;1.10;;
21297;SDS011;10808;48.010;11.326;2023-12-28T02:23:35;1.88;;;1.13;;
21297;SDS011;10808;48.010;11.326;2023-12-28T02:26:01;1.60;;;1.10;;
21297;SDS011;10808;48.010;11.326;2023-12-28T02:28:27;1.88;;;1.20;;
21297;SDS011;10808;48.010;11.326;2023-12-28T02:30:53;1.73;;;1.10;;
21297;SDS011;10808;48.010;11.326;2023-12-28T02:36:18;1.33;;;1.10;;
21297;SDS011;10808;48.010;11.326;2023-12-28T02:38:48;2.40;;;1.23;;
21297;SDS011;10808;48.010;11.326;2023-12-28T02:41:16;1.52;;;1.20;;
21297;SDS011;10808;48.010;11.326;2023-12-28T02:43:43;1.70;;;1.20;;
21297;SDS011;10808;48.010;11.326;2023-12-28T02:46:09;1.50;;;1.20;;
21297;SDS011;10808;48.010;11.326;2023-12-28T02:48:36;2.13;;;1.17;;
21297;SDS011;10808;48.010;11.326;2023-12-28T02:51:02;1.33;;;1.10;;
21297;SDS011;10808;48.010;11.326;2023-12-28T02:53:28;1.25;;;1.08;;
21297;SDS011;10808;48.010;11.326;2023-12-28T02:55:54;1.45;;;1.00;;
21297;SDS011;10808;48.010;11.326;2023-12-28T02:58:20;2.00;;;1.10;;
21297;SDS011;10808;48.010;11.326;2023-12-28T03:00:46;1.48;;;1.10;;
21297;SDS011;10808;48.010;11.326;2023-12-28T03:03:15;1.10;;;1.00;;
21297;SDS011;10808;48.010;11.326;2023-12-28T03:05:41;2.22;;;1.10;;
21297;SDS011;10808;48.010;11.326;2023-12-28T03:08:07;1.50;;;1.00;;
21297;SDS011;10808;48.010;11.326;2023-12-28T03:10:36;1.35;;;1.13;;
21297;SDS011;10808;48.010;11.326;2023-12-28T03:13:02;1.45;;;1.10;;
21297;SDS011;10808;48.010;11.326;2023-12-28T03:15:28;1.70;;;1.30;;
21297;SDS011;10808;48.010;11.326;2023-12-28T03:17:54;1.60;;;1.10;;
21297;SDS011;10808;48.010;11.326;2023-12-28T03:20:20;1.38;;;1.10;;
21297;SDS011;10808;48.010;11.326;2023-12-28T03:22:46;1.63;;;1.00;;
21297;SDS011;10808;48.010;11.326;2023-12-28T03:25:12;1.92;;;1.30;;
21297;SDS011;10808;48.010;11.326;2023-12-28T03:27:39;1.73;;;1.33;;
21297;SDS011;10808;48.010;11.326;2023-12-28T03:30:05;1.65;;;1.20;;
21297;SDS011;10808;48.010;11.326;2023-12-28T03:32:33;3.05;;;1.42;;
21297;SDS011;10808;48.010;11.326;2023-12-28T03:34:59;1.58;;;1.30;;
21297;SDS011;10808;48.010;11.326;2023-12-28T03:37:25;1.52;;;1.33;;
21297;SDS011;10808;48.010;11.326;2023-12-28T03:39:51;1.98;;;1.60;;
21297;SDS011;10808;48.010;11.326;2023-12-28T03:42:18;2.60;;;1.50;;
21297;SDS011;10808;48.010;11.326;2023-12-28T03:44:44;3.03;;;1.40;;
21297;SDS011;10808;48.010;11.326;2023-12-28T03:47:10;2.33;;;1.60;;
21297;SDS011;10808;48.010;11.326;2023-12-28T03:49:36;2.35;;;1.38;;
21297;SDS011;10808;48.010;11.326;2023-12-28T03:52:02;2.00;;;1.50;;
21297;SDS011;10808;48.010;11.326;2023-12-28T03:54:29;2.00;;;1.40;;
21297;SDS011;10808;48.010;11.326;2023-12-28T03:56:55;1.90;;;1.50;;
21297;SDS011;10808;48.010;11.326;2023-12-28T03:59:21;2.17;;;1.55;;
21297;SDS011;10808;48.010;11.326;2023-12-28T04:01:47;1.70;;;1.30;;
21297;SDS011;10808;48.010;11.326;2023-12-28T04:04:13;2.63;;;1.60;;
21297;SDS011;10808;48.010;11.326;2023-12-28T04:06:39;1.73;;;1.30;;
21297;SDS011;10808;48.010;11.326;2023-12-28T04:09:07;2.03;;;1.33;;
21297;SDS011;10808;48.010;11.326;2023-12-28T04:11:33;2.00;;;1.30;;
21297;SDS011;10808;48.010;11.326;2023-12-28T04:13:59;2.22;;;1.48;;
21297;SDS011;10808;48.010;11.326;2023-12-28T04:16:25;2.00;;;1.47;;
21297;SDS011;10808;48.010;11.326;2023-12-28T04:18:51;1.92;;;1.13;;
21297;SDS011;10808;48.010;11.326;2023-12-28T04:21:17;1.70;;;1.33;;
21297;SDS011;10808;48.010;11.326;2023-12-28T04:23:44;2.00;;;1.40;;
21297;SDS011;10808;48.010;11.326;2023-12-28T04:26:10;2.15;;;1.42;;
21297;SDS011;10808;48.010;11.326;2023-12-28T04:28:36;1.42;;;1.10;;
21297;SDS011;10808;48.010;11.326;2023-12-28T04:31:05;2.40;;;1.30;;
21297;SDS011;10808;48.010;11.326;2023-12-28T04:33:32;1.80;;;1.40;;
21297;SDS011;10808;48.010;11.326;2023-12-28T04:36:02;2.20;;;1.37;;
21297;SDS011;10808;48.010;11.326;2023-12-28T04:38:29;2.70;;;1.20;;
21297;SDS011;10808;48.010;11.326;2023-12-28T04:40:57;1.77;;;1.30;;
21297;SDS011;10808;48.010;11.326;2023-12-28T04:43:26;2.33;;;1.30;;
21297;SDS011;10808;48.010;11.326;2023-12-28T04:45:52;1.95;;;1.40;;
21297;SDS011;10808;48.010;11.326;2023-12-28T04:48:18;2.30;;;1.40;;
21297;SDS011;10808;48.010;11.326;2023-12-28T04:50:49;1.30;;;1.05;;
21297;SDS011;10808;48.010;11.326;2023-12-28T04:53:15;1.70;;;1.30;;
21297;SDS011;10808;48.010;11.326;2023-12-28T04:55:41;1.70;;;1.30;;
21297;SDS011;10808;48.010;11.326;2023-12-28T04:58:07;2.03;;;1.30;;
21297;SDS011;10808;48.010;11.326;2023-12-28T05:00:35;3.83;;;1.27;;
21297;SDS011;10808;48.010;11.326;2023-12-28T05:03:01;4.03;;;2.20;;
21297;SDS011;10808;48.010;11.326;2023-12-28T05:05:27;9.50;;;4.50;;
21297;SDS011;10808;48.010;11.326;2023-12-28T05:07:53;5.65;;;2.92;;
21297;SDS011;10808;48.010;11.326;2023-12-28T05:10:19;7.80;;;3.13;;
21297;SDS011;10808;48.010;11.326;2023-12-28T05:12:45;4.13;;;2.25;;
21297;SDS011;10808;48.010;11.326;2023-12-28T05:15:11;4.43;;;2.60;;
21297;SDS011;10808;48.010;11.326;2023-12-28T05:17:37;3.88;;;2.30;;
21297;SDS011;10808;48.010;11.326;2023-12-28T05:20:03;3.27;;;1.83;;
21297;SDS011;10808;48.010;11.326;2023-12-28T05:22:30;3.30;;;1.80;;
21297;SDS011;10808;48.010;11.326;2023-12-28T05:24:56;5.05;;;2.55;;
21297;SDS011;10808;48.010;11.326;2023-12-28T05:27:22;4.25;;;2.65;;
21297;SDS011;10808;48.010;11.326;2023-12-28T05:29:48;4.10;;;1.98;;
21297;SDS011;10808;48.010;11.326;2023-12-28T05:32:14;4.78;;;2.00;;
21297;SDS011;10808;48.010;11.326;2023-12-28T05:34:40;4.28;;;2.00;;
21297;SDS011;10808;48.010;11.326;2023-12-28T05:37:09;4.72;;;2.33;;
21297;SDS011;10808;48.010;11.326;2023-12-28T05:39:35;3.58;;;2.10;;
21297;SDS011;10808;48.010;11.326;2023-12-28T05:42:01;4.03;;;2.00;;
21297;SDS011;10808;48.010;11.326;2023-12-28T05:44:27;4.50;;;2.05;;
21297;SDS011;10808;48.010;11.326;2023-12-28T05:46:53;4.40;;;2.42;;
21297;SDS011;10808;48.010;11.326;2023-12-28T05:49:19;3.95;;;2.30;;
21297;SDS011;10808;48.010;11.326;2023-12-28T05:51:45;4.20;;;2.17;;
21297;SDS011;10808;48.010;11.326;2023-12-28T05:54:11;4.18;;;2.50;;
21297;SDS011;10808;48.010;11.326;2023-12-28T05:56:37;3.65;;;2.40;;
21297;SDS011;10808;48.010;11.326;2023-12-28T05:59:03;3.28;;;2.00;;
21297;SDS011;10808;48.010;11.326;2023-12-28T06:01:29;2.30;;;1.45;;
21297;SDS011;10808;48.010;11.326;2023-12-28T06:03:55;1.38;;;1.17;;
21297;SDS011;10808;48.010;11.326;2023-12-28T06:06:21;2.93;;;1.40;;
21297;SDS011;10808;48.010;11.326;2023-12-28T06:08:47;1.58;;;1.27;;
21297;SDS011;10808;48.010;11.326;2023-12-28T06:11:13;1.65;;;1.25;;
21297;SDS011;10808;48.010;11.326;2023-12-28T06:13:39;1.67;;;1.10;;
21297;SDS011;10808;48.010;11.326;2023-12-28T06:16:05;1.67;;;1.20;;
21297;SDS011;10808;48.010;11.326;2023-12-28T06:18:31;1.70;;;1.25;;
21297;SDS011;10808;48.010;11.326;2023-12-28T06:20:57;1.65;;;1.30;;
21297;SDS011;10808;48.010;11.326;2023-12-28T06:23:24;2.45;;;1.45;;
21297;SDS011;10808;48.010;11.326;2023-12-28T06:25:50;1.93;;;1.30;;
21297;SDS011;10808;48.010;11.326;2023-12-28T06:28:16;2.35;;;1.50;;
21297;SDS011;10808;48.010;11.326;2023-12-28T06:30:42;1.95;;;1.50;;
21297;SDS011;10808;48.010;11.326;2023-12-28T06:33:08;1.73;;;1.30;;
21297;SDS011;10808;48.010;11.326;2023-12-28T06:35:34;1.50;;;1.10;;
21297;SDS011;10808;48.010;11.326;2023-12-28T06:38:00;1.27;;;1.08;;
21297;SDS011;10808;48.010;11.326;2023-12-28T06:40:27;1.70;;;1.35;;
21297;SDS011;10808;48.010;11.326;2023-12-28T06:42:53;1.77;;;1.05;;
21297;SDS011;10808;48.010;11.326;2023-12-28T06:45:19;1.08;;;0.93;;
21297;SDS011;10808;48.010;11.326;2023-12-28T06:47:45;1.25;;;1.00;;
21297;SDS011;10808;48.010;11.326;2023-12-28T06:50:11;1.10;;;1.00;;
21297;SDS011;10808;48.010;11.326;2023-12-28T06:52:37;2.20;;;1.20;;
21297;SDS011;10808;48.010;11.326;2023-12-28T06:55:03;1.40;;;1.20;;
21297;SDS011;10808;48.010;11.326;2023-12-28T06:57:29;1.52;;;1.08;;
21297;SDS011;10808;48.010;11.326;2023-12-28T06:59:55;1.60;;;1.05;;
21297;SDS011;10808;48.010;11.326;2023-12-28T07:02:21;2.53;;;1.13;;
21297;SDS011;10808;48.010;11.326;2023-12-28T07:04:47;1.45;;;1.10;;
21297;SDS011;10808;48.010;11.326;2023-12-28T07:07:13;1.45;;;1.10;;
21297;SDS011;10808;48.010;11.326;2023-12-28T07:09:39;1.10;;;1.00;;
21297;SDS011;10808;48.010;11.326;2023-12-28T07:12:05;1.63;;;1.10;;
21297;SDS011;10808;48.010;11.326;2023-12-28T07:14:32;1.50;;;1.00;;
21297;SDS011;10808;48.010;11.326;2023-12-28T07:16:58;1.80;;;1.00;;
21297;SDS011;10808;48.010;11.326;2023-12-28T07:19:24;1.70;;;1.20;;
21297;SDS011;10808;48.010;11.326;2023-12-28T07:21:50;1.80;;;1.30;;
21297;SDS011;10808;48.010;11.326;2023-12-28T07:24:16;1.55;;;1.25;;
21297;SDS011;10808;48.010;11.326;2023-12-28T07:26:42;2.50;;;1.27;;
21297;SDS011;10808;48.010;11.326;2023-12-28T07:29:08;1.80;;;1.27;;
21297;SDS011;10808;48.010;11.326;2023-12-28T07:31:39;1.67;;;1.27;;
21297;SDS011;10808;48.010;11.326;2023-12-28T07:34:08;2.35;;;1.27;;
21297;SDS011;10808;48.010;11.326;2023-12-28T07:36:34;2.10;;;1.27;;
21297;SDS011;10808;48.010;11.326;2023-12-28T07:39:00;1.88;;;1.15;;
21297;SDS011;10808;48.010;11.326;2023-12-28T07:41:26;2.97;;;1.30;;
21297;SDS011;10808;48.010;11.326;2023-12-28T07:43:53;2.07;;;1.30;;
21297;SDS011;10808;48.010;11.326;2023-12-28T07:46:19;2.10;;;1.48;;
21297;SDS011;10808;48.010;11.326;2023-12-28T07:48:46;2.58;;;1.35;;
21297;SDS011;10808;48.010;11.326;2023-12-28T07:51:13;2.05;;;1.50;;
21297;SDS011;10808;48.010;11.326;2023-12-28T07:53:39;2.03;;;1.38;;
21297;SDS011;10808;48.010;11.326;2023-12-28T07:56:05;2.22;;;1.40;;
21297;SDS011;10808;48.010;11.326;2023-12-28T07:58:32;1.77;;;1.35;;
21297;SDS011;10808;48.010;11.326;2023-12-28T08:00:57;1.47;;;1.20;;
21297;SDS011;10808;48.010;11.326;2023-12-28T08:03:24;1.80;;;1.42;;
21297;SDS011;10808;48.010;11.326;2023-12-28T08:05:49;1.33;;;1.17;;
21297;SDS011;10808;48.010;11.326;2023-12-28T08:08:15;2.75;;;1.60;;
21297;SDS011;10808;48.010;11.326;2023-12-28T08:10:41;4.07;;;2.20;;
21297;SDS011;10808;48.010;11.326;2023-12-28T08:13:07;4.50;;;2.10;;
21297;SDS011;10808;48.010;11.326;2023-12-28T08:15:34;4.63;;;2.67;;
21297;SDS011;10808;48.010;11.326;2023-12-28T08:18:00;4.13;;;2.30;;
21297;SDS011;10808;48.010;11.326;2023-12-28T08:20:26;8.95;;;4.50;;
21297;SDS011;10808;48.010;11.326;2023-12-28T08:22:53;7.68;;;4.05;;
21297;SDS011;10808;48.010;11.326;2023-12-28T08:25:19;6.28;;;3.67;;
21297;SDS011;10808;48.010;11.326;2023-12-28T08:27:45;5.15;;;3.10;;
21297;SDS011;10808;48.010;11.326;2023-12-28T08:30:11;5.65;;;3.50;;
21297;SDS011;10808;48.010;11.326;2023-12-28T08:32:37;5.75;;;3.65;;
21297;SDS011;10808;48.010;11.326;2023-12-28T08:35:03;5.32;;;2.92;;
21297;SDS011;10808;48.010;11.326;2023-12-28T08:37:30;3.27;;;2.00;;
21297;SDS011;10808;48.010;11.326;2023-12-28T08:39:56;1.80;;;1.50;;
21297;SDS011;10808;48.010;11.326;2023-12-28T08:42:22;3.08;;;1.80;;
21297;SDS011;10808;48.010;11.326;2023-12-28T08:44:50;3.70;;;2.20;;
21297;SDS011;10808;48.010;11.326;2023-12-28T08:47:17;4.47;;;2.60;;
21297;SDS011;10808;48.010;11.326;2023-12-28T08:49:43;4.85;;;2.90;;
21297;SDS011;10808;48.010;11.326;2023-12-28T08:52:09;7.32;;;2.63;;
21297;SDS011;10808;48.010;11.326;2023-12-28T08:54:35;4.85;;;2.70;;
21297;SDS011;10808;48.010;11.326;2023-12-28T08:57:01;3.92;;;2.50;;
21297;SDS011;10808;48.010;11.326;2023-12-28T08:59:28;5.27;;;2.87;;
21297;SDS011;10808;48.010;11.326;2023-12-28T09:01:54;2.17;;;1.73;;
21297;SDS011;10808;48.010;11.326;2023-12-28T09:04:20;3.70;;;2.40;;
21297;SDS011;10808;48.010;11.326;2023-12-28T09:06:46;4.10;;;2.07;;
21297;SDS011;10808;48.010;11.326;2023-12-28T09:09:12;2.80;;;1.67;;
21297;SDS011;10808;48.010;11.326;2023-12-28T09:11:38;2.75;;;1.70;;
21297;SDS011;10808;48.010;11.326;2023-12-28T09:14:04;4.93;;;2.92;;
21297;SDS011;10808;48.010;11.326;2023-12-28T09:16:30;6.97;;;3.43;;
21297;SDS011;10808;48.010;11.326;2023-12-28T09:18:56;8.15;;;4.10;;
21297;SDS011;10808;48.010;11.326;2023-12-28T09:21:22;5.93;;;3.30;;
21297;SDS011;10808;48.010;11.326;2023-12-28T09:23:48;4.03;;;2.40;;
21297;SDS011;10808;48.010;11.326;2023-12-28T09:26:14;2.97;;;2.13;;
21297;SDS011;10808;48.010;11.326;2023-12-28T09:28:40;3.85;;;2.35;;
21297;SDS011;10808;48.010;11.326;2023-12-28T09:31:06;3.95;;;2.13;;
21297;SDS011;10808;48.010;11.326;2023-12-28T09:33:33;2.97;;;1.48;;
21297;SDS011;10808;48.010;11.326;2023-12-28T09:35:59;2.72;;;1.40;;
21297;SDS011;10808;48.010;11.326;2023-12-28T09:38:25;3.15;;;1.27;;
21297;SDS011;10808;48.010;11.326;2023-12-28T09:40:52;2.50;;;1.38;;
21297;SDS011;10808;48.010;11.326;2023-12-28T09:43:26;2.55;;;1.35;;
21297;SDS011;10808;48.010;11.326;2023-12-28T09:46:06;2.90;;;1.90;;
21297;SDS011;10808;48.010;11.326;2023-12-28T09:48:33;3.50;;;1.90;;
21297;SDS011;10808;48.010;11.326;2023-12-28T09:51:00;2.95;;;1.90;;
21297;SDS011;10808;48.010;11.326;2023-12-28T09:53:26;2.55;;;1.70;;
21297;SDS011;10808;48.010;11.326;2023-12-28T09:55:52;1.80;;;1.60;;
21297;SDS011;10808;48.010;11.326;2023-12-28T09:58:19;2.17;;;1.60;;
21297;SDS011;10808;48.010;11.326;2023-12-28T10:00:47;2.00;;;1.60;;
21297;SDS011;10808;48.010;11.326;2023-12-28T10:03:15;2.35;;;1.60;;
21297;SDS011;10808;48.010;11.326;2023-12-28T10:08:14;2.85;;;1.25;;
21297;SDS011;10808;48.010;11.326;2023-12-28T10:10:41;1.33;;;1.10;;
21297;SDS011;10808;48.010;11.326;2023-12-28T10:13:08;1.05;;;0.90;;
21297;SDS011;10808;48.010;11.326;2023-12-28T10:15:36;1.50;;;1.10;;
21297;SDS011;10808;48.010;11.326;2023-12-28T10:18:03;1.45;;;1.00;;
21297;SDS011;10808;48.010;11.326;2023-12-28T10:20:30;1.00;;;0.80;;
21297;SDS011;10808;48.010;11.326;2023-12-28T10:22:57;1.50;;;0.90;;
21297;SDS011;10808;48.010;11.326;2023-12-28T10:25:25;5.65;;;4.38;;
21297;SDS011;10808;48.010;11.326;2023-12-28T10:27:52;1.20;;;0.95;;
21297;SDS011;10808;48.010;11.326;2023-12-28T10:30:22;1.63;;;1.20;;
21297;SDS011;10808;48.010;11.326;2023-12-28T10:32:54;3.30;;;2.08;;
21297;SDS011;10808;48.010;11.326;2023-12-28T10:35:28;5.15;;;4.60;;
21297;SDS011;10808;48.010;11.326;2023-12-28T10:37:54;2.65;;;1.90;;
21297;SDS011;10808;48.010;11.326;2023-12-28T10:40:26;1.95;;;1.55;;
21297;SDS011;10808;48.010;11.326;2023-12-28T10:43:02;1.65;;;1.00;;
21297;SDS011;10808;48.010;11.326;2023-12-28T10:45:34;2.03;;;1.03;;
21297;SDS011;10808;48.010;11.326;2023-12-28T10:48:10;1.48;;;0.90;;
21297;SDS011;10808;48.010;11.326;2023-12-28T10:53:39;1.55;;;1.00;;
21297;SDS011;10808;48.010;11.326;2023-12-28T10:59:05;3.90;;;3.03;;
21297;SDS011;10808;48.010;11.326;2023-12-28T11:01:42;3.43;;;3.10;;
21297;SDS011;10808;48.010;11.326;2023-12-28T11:04:31;1.73;;;1.17;;
21297;SDS011;10808;48.010;11.326;2023-12-28T11:06:58;0.80;;;0.80;;
21297;SDS011;10808;48.010;11.326;2023-12-28T11:09:25;1.40;;;0.70;;
21297;SDS011;10808;48.010;11.326;2023-12-28T11:11:55;1.50;;;0.80;;
21297;SDS011;10808;48.010;11.326;2023-12-28T11:14:24;1.40;;;0.70;;
21297;SDS011;10808;48.010;11.326;2023-12-28T11:16:52;1.90;;;0.90;;
21297;SDS011;10808;48.010;11.326;2023-12-28T11:19:19;2.75;;;1.90;;
21297;SDS011;10808;48.010;11.326;2023-12-28T11:21:48;2.65;;;2.28;;
21297;SDS011;10808;48.010;11.326;2023-12-28T11:24:15;2.85;;;2.45;;
21297;SDS011;10808;48.010;11.326;2023-12-28T11:26:58;5.77;;;2.93;;
21297;SDS011;10808;48.010;11.326;2023-12-28T11:29:24;3.53;;;1.85;;
21297;SDS011;10808;48.010;11.326;2023-12-28T11:31:51;1.60;;;1.40;;
21297;SDS011;10808;48.010;11.326;2023-12-28T11:34:18;3.13;;;1.83;;
21297;SDS011;10808;48.010;11.326;2023-12-28T11:36:48;2.85;;;1.83;;
21297;SDS011;10808;48.010;11.326;2023-12-28T11:39:33;2.15;;;1.63;;
21297;SDS011;10808;48.010;11.326;2023-12-28T11:42:04;1.83;;;1.50;;
21297;SDS011;10808;48.010;11.326;2023-12-28T11:44:31;2.03;;;1.50;;
21297;SDS011;10808;48.010;11.326;2023-12-28T11:47:15;4.00;;;1.73;;
21297;SDS011;10808;48.010;11.326;2023-12-28T11:49:46;1.50;;;1.30;;
21297;SDS011;10808;48.010;11.326;2023-12-28T11:52:24;3.22;;;1.60;;
21297;SDS011;10808;48.010;11.326;2023-12-28T11:54:52;2.22;;;1.40;;
21297;SDS011;10808;48.010;11.326;2023-12-28T11:57:18;1.88;;;1.25;;
21297;SDS011;10808;48.010;11.326;2023-12-28T11:59:44;3.17;;;1.73;;
21297;SDS011;10808;48.010;11.326;2023-12-28T12:02:10;4.10;;;2.20;;
21297;SDS011;10808;48.010;11.326;2023-12-28T12:04:37;1.77;;;1.30;;
21297;SDS011;10808;48.010;11.326;2023-12-28T12:07:03;2.50;;;1.50;;
21297;SDS011;10808;48.010;11.326;2023-12-28T12:09:29;3.77;;;1.97;;
21297;SDS011;10808;48.010;11.326;2023-12-28T12:12:04;4.50;;;2.23;;
21297;SDS011;10808;48.010;11.326;2023-12-28T12:14:30;1.92;;;1.45;;
21297;SDS011;10808;48.010;11.326;2023-12-28T12:16:56;3.00;;;1.60;;
21297;SDS011;10808;48.010;11.326;2023-12-28T12:19:24;6.65;;;2.90;;
21297;SDS011;10808;48.010;11.326;2023-12-28T12:21:53;3.83;;;2.10;;
21297;SDS011;10808;48.010;11.326;2023-12-28T12:24:20;3.33;;;1.98;;
21297;SDS011;10808;48.010;11.326;2023-12-28T12:26:47;1.73;;;1.20;;
21297;SDS011;10808;48.010;11.326;2023-12-28T12:29:14;1.73;;;1.20;;
21297;SDS011;10808;48.010;11.326;2023-12-28T12:31:40;2.60;;;1.50;;
21297;SDS011;10808;48.010;11.326;2023-12-28T12:34:15;1.85;;;1.23;;
21297;SDS011;10808;48.010;11.326;2023-12-28T12:36:42;3.13;;;1.50;;
21297;SDS011;10808;48.010;11.326;2023-12-28T12:39:11;3.00;;;1.40;;
21297;SDS011;10808;48.010;11.326;2023-12-28T12:41:38;1.88;;;1.35;;
21297;SDS011;10808;48.010;11.326;2023-12-28T12:44:04;2.88;;;1.52;;
21297;SDS011;10808;48.010;11.326;2023-12-28T12:46:31;1.67;;;1.30;;
21297;SDS011;10808;48.010;11.326;2023-12-28T12:48:57;2.30;;;1.35;;
21297;SDS011;10808;48.010;11.326;2023-12-28T12:51:25;2.30;;;1.47;;
21297;SDS011;10808;48.010;11.326;2023-12-28T12:53:59;3.85;;;2.17;;
21297;SDS011;10808;48.010;11.326;2023-12-28T12:56:26;4.40;;;3.17;;
21297;SDS011;10808;48.010;11.326;2023-12-28T12:58:53;3.45;;;2.80;;
21297;SDS011;10808;48.010;11.326;2023-12-28T13:01:20;3.47;;;2.47;;
21297;SDS011;10808;48.010;11.326;2023-12-28T13:03:52;3.15;;;2.55;;
21297;SDS011;10808;48.010;11.326;2023-12-28T13:06:18;3.75;;;2.30;;
21297;SDS011;10808;48.010;11.326;2023-12-28T13:08:50;2.50;;;1.88;;
21297;SDS011;10808;48.010;11.326;2023-12-28T13:11:16;2.63;;;1.85;;
21297;SDS011;10808;48.010;11.326;2023-12-28T13:13:48;3.10;;;2.25;;
21297;SDS011;10808;48.010;11.326;2023-12-28T13:16:14;3.30;;;2.30;;
21297;SDS011;10808;48.010;11.326;2023-12-28T13:18:40;3.17;;;2.50;;
21297;SDS011;10808;48.010;11.326;2023-12-28T13:21:06;4.75;;;2.90;;
21297;SDS011;10808;48.010;11.326;2023-12-28T13:23:32;2.88;;;2.05;;
21297;SDS011;10808;48.010;11.326;2023-12-28T13:25:58;3.83;;;2.53;;
21297;SDS011;10808;48.010;11.326;2023-12-28T13:28:24;4.55;;;2.92;;
21297;SDS011;10808;48.010;11.326;2023-12-28T13:30:50;5.82;;;2.70;;
21297;SDS011;10808;48.010;11.326;2023-12-28T13:33:16;4.20;;;2.40;;
21297;SDS011;10808;48.010;11.326;2023-12-28T13:35:42;3.65;;;2.30;;
21297;SDS011;10808;48.010;11.326;2023-12-28T13:38:08;4.50;;;2.42;;
21297;SDS011;10808;48.010;11.326;2023-12-28T13:40:36;4.15;;;3.40;;
21297;SDS011;10808;48.010;11.326;2023-12-28T13:43:02;5.70;;;3.65;;
21297;SDS011;10808;48.010;11.326;2023-12-28T13:45:28;10.77;;;6.68;;
21297;SDS011;10808;48.010;11.326;2023-12-28T13:47:54;8.00;;;5.80;;
21297;SDS011;10808;48.010;11.326;2023-12-28T13:50:21;11.13;;;7.37;;
21297;SDS011;10808;48.010;11.326;2023-12-28T13:52:47;6.30;;;4.30;;
21297;SDS011;10808;48.010;11.326;2023-12-28T13:55:15;6.75;;;4.68;;
21297;SDS011;10808;48.010;11.326;2023-12-28T13:57:42;4.05;;;3.13;;
21297;SDS011;10808;48.010;11.326;2023-12-28T14:00:09;8.23;;;5.93;;
21297;SDS011;10808;48.010;11.326;2023-12-28T14:02:36;10.35;;;6.20;;
21297;SDS011;10808;48.010;11.326;2023-12-28T14:05:02;11.73;;;7.45;;
21297;SDS011;10808;48.010;11.326;2023-12-28T14:07:29;11.20;;;6.70;;
21297;SDS011;10808;48.010;11.326;2023-12-28T14:09:55;6.65;;;5.00;;
21297;SDS011;10808;48.010;11.326;2023-12-28T14:12:21;3.35;;;2.20;;
21297;SDS011;10808;48.010;11.326;2023-12-28T14:14:53;2.38;;;1.90;;
21297;SDS011;10808;48.010;11.326;2023-12-28T14:17:19;1.95;;;1.65;;
21297;SDS011;10808;48.010;11.326;2023-12-28T14:19:46;2.22;;;1.60;;
21297;SDS011;10808;48.010;11.326;2023-12-28T14:22:15;2.35;;;1.48;;
21297;SDS011;10808;48.010;11.326;2023-12-28T14:24:41;2.05;;;1.77;;
21297;SDS011;10808;48.010;11.326;2023-12-28T14:27:07;2.13;;;1.70;;
21297;SDS011;10808;48.010;11.326;2023-12-28T14:29:34;3.65;;;2.25;;
21297;SDS011;10808;48.010;11.326;2023-12-28T14:32:00;3.10;;;1.90;;
21297;SDS011;10808;48.010;11.326;2023-12-28T14:34:26;2.47;;;1.70;;
21297;SDS011;10808;48.010;11.326;2023-12-28T14:36:53;3.40;;;2.37;;
21297;SDS011;10808;48.010;11.326;2023-12-28T14:39:22;3.90;;;2.47;;
21297;SDS011;10808;48.010;11.326;2023-12-28T14:41:49;3.28;;;1.95;;
21297;SDS011;10808;48.010;11.326;2023-12-28T14:44:15;2.55;;;1.50;;